sensor_id;sensor_type;location;lat;lon;timestamp;P1;durP1;ratioP1;P2;durP2;ratioP2
39314;SDS011;28703;44.412;11.918;2023-05-10T00:02:19;10.73;;;4.78;;
39314;SDS011;28703;44.412;11.918;2023-05-10T00:04:45;9.07;;;3.67;;
39314;SDS011;28703;44.412;11.918;2023-05-10T00:07:36;7.25;;;3.78;;
39314;SDS011;28703;44.412;11.918;2023-05-10T00:12:58;6.22;;;3.78;;
39314;SDS011;28703;44.412;11.918;2023-05-10T00:18:17;4.35;;;3.58;;
39314;SDS011;28703;44.412;11.918;2023-05-10T00:20:47;8.93;;;4.22;;
39314;SDS011;28703;44.412;11.918;2023-05-10T00:23:22;4.55;;;3.47;;
39314;SDS011;28703;44.412;11.918;2023-05-10T00:26:07;4.80;;;4.20;;
39314;SDS011;28703;44.412;11.918;2023-05-10T00:28:35;6.03;;;4.63;;
39314;SDS011;28703;44.412;11.918;2023-05-10T00:31:05;5.88;;;4.85;;
39314;SDS011;28703;44.412;11.918;2023-05-10T00:33:43;16.45;;;6.80;;
39314;SDS011;28703;44.412;11.918;2023-05-10T00:36:09;6.50;;;5.40;;
39314;SDS011;28703;44.412;11.918;2023-05-10T00:38:37;9.98;;;5.65;;
39314;SDS011;28703;44.412;11.918;2023-05-10T00:41:03;6.57;;;4.80;;
39314;SDS011;28703;44.412;11.918;2023-05-10T00:43:48;5.82;;;4.60;;
39314;SDS011;28703;44.412;11.918;2023-05-10T00:46:14;6.45;;;5.05;;
39314;SDS011;28703;44.412;11.918;2023-05-10T00:48:41;10.52;;;4.78;;
39314;SDS011;28703;44.412;11.918;2023-05-10T00:51:08;8.70;;;5.10;;
39314;SDS011;28703;44.412;11.918;2023-05-10T00:53:56;10.27;;;4.68;;
39314;SDS011;28703;44.412;11.918;2023-05-10T00:56:26;9.32;;;4.35;;
39314;SDS011;28703;44.412;11.918;2023-05-10T00:58:53;5.00;;;4.50;;
39314;SDS011;28703;44.412;11.918;2023-05-10T01:01:20;7.95;;;4.95;;
39314;SDS011;28703;44.412;11.918;2023-05-10T01:04:05;7.95;;;4.78;;
39314;SDS011;28703;44.412;11.918;2023-05-10T01:06:33;6.60;;;5.30;;
39314;SDS011;28703;44.412;11.918;2023-05-10T01:08:59;8.65;;;5.28;;
39314;SDS011;28703;44.412;11.918;2023-05-10T01:11:45;8.75;;;4.90;;
39314;SDS011;28703;44.412;11.918;2023-05-10T01:14:15;7.15;;;4.75;;
39314;SDS011;28703;44.412;11.918;2023-05-10T01:17:02;7.22;;;4.82;;
39314;SDS011;28703;44.412;11.918;2023-05-10T01:19:30;6.68;;;5.32;;
39314;SDS011;28703;44.412;11.918;2023-05-10T01:25:11;9.40;;;5.30;;
39314;SDS011;28703;44.412;11.918;2023-05-10T01:31:03;11.57;;;4.70;;
39314;SDS011;28703;44.412;11.918;2023-05-10T01:47:02;7.20;;;4.90;;
39314;SDS011;28703;44.412;11.918;2023-05-10T01:49:54;11.30;;;5.93;;
39314;SDS011;28703;44.412;11.918;2023-05-10T01:52:59;9.65;;;4.90;;
39314;SDS011;28703;44.412;11.918;2023-05-10T02:01:36;8.13;;;4.88;;
39314;SDS011;28703;44.412;11.918;2023-05-10T02:04:20;6.63;;;5.15;;
39314;SDS011;28703;44.412;11.918;2023-05-10T02:06:52;5.47;;;4.70;;
39314;SDS011;28703;44.412;11.918;2023-05-10T02:09:20;5.15;;;4.50;;
39314;SDS011;28703;44.412;11.918;2023-05-10T02:11:49;16.70;;;5.80;;
39314;SDS011;28703;44.412;11.918;2023-05-10T02:14:15;10.82;;;4.97;;
39314;SDS011;28703;44.412;11.918;2023-05-10T02:16:42;11.35;;;4.90;;
39314;SDS011;28703;44.412;11.918;2023-05-10T02:19:10;7.43;;;5.75;;
39314;SDS011;28703;44.412;11.918;2023-05-10T02:21:38;6.70;;;5.05;;
39314;SDS011;28703;44.412;11.918;2023-05-10T02:24:06;13.63;;;5.82;;
39314;SDS011;28703;44.412;11.918;2023-05-10T02:26:34;10.35;;;5.28;;
39314;SDS011;28703;44.412;11.918;2023-05-10T02:29:06;13.60;;;5.88;;
39314;SDS011;28703;44.412;11.918;2023-05-10T02:31:33;11.98;;;5.18;;
39314;SDS011;28703;44.412;11.918;2023-05-10T02:34:01;8.52;;;5.40;;
39314;SDS011;28703;44.412;11.918;2023-05-10T02:36:28;6.82;;;4.80;;
39314;SDS011;28703;44.412;11.918;2023-05-10T02:38:55;11.25;;;5.38;;
39314;SDS011;28703;44.412;11.918;2023-05-10T02:41:22;8.93;;;5.25;;
39314;SDS011;28703;44.412;11.918;2023-05-10T02:43:50;10.48;;;6.00;;
39314;SDS011;28703;44.412;11.918;2023-05-10T02:46:20;7.70;;;5.20;;
39314;SDS011;28703;44.412;11.918;2023-05-10T02:48:46;12.45;;;5.80;;
39314;SDS011;28703;44.412;11.918;2023-05-10T02:51:12;7.97;;;4.30;;
39314;SDS011;28703;44.412;11.918;2023-05-10T02:53:43;12.70;;;4.70;;
39314;SDS011;28703;44.412;11.918;2023-05-10T02:56:16;7.05;;;5.05;;
39314;SDS011;28703;44.412;11.918;2023-05-10T02:58:53;9.77;;;4.88;;
39314;SDS011;28703;44.412;11.918;2023-05-10T03:01:20;10.18;;;4.82;;
39314;SDS011;28703;44.412;11.918;2023-05-10T03:03:46;7.30;;;4.60;;
39314;SDS011;28703;44.412;11.918;2023-05-10T03:06:12;7.93;;;4.65;;
39314;SDS011;28703;44.412;11.918;2023-05-10T03:08:38;11.55;;;4.93;;
39314;SDS011;28703;44.412;11.918;2023-05-10T03:14:42;9.93;;;5.15;;
39314;SDS011;28703;44.412;11.918;2023-05-10T03:17:06;14.75;;;4.75;;
39314;SDS011;28703;44.412;11.918;2023-05-10T03:19:51;12.65;;;5.35;;
39314;SDS011;28703;44.412;11.918;2023-05-10T03:22:34;12.13;;;5.38;;
39314;SDS011;28703;44.412;11.918;2023-05-10T03:25:04;12.13;;;5.15;;
39314;SDS011;28703;44.412;11.918;2023-05-10T03:27:32;6.90;;;4.80;;
39314;SDS011;28703;44.412;11.918;2023-05-10T03:30:01;8.68;;;5.22;;
39314;SDS011;28703;44.412;11.918;2023-05-10T03:32:30;9.82;;;5.68;;
39314;SDS011;28703;44.412;11.918;2023-05-10T03:34:58;8.45;;;4.97;;
39314;SDS011;28703;44.412;11.918;2023-05-10T03:37:25;12.05;;;5.40;;
39314;SDS011;28703;44.412;11.918;2023-05-10T03:39:51;8.02;;;4.93;;
39314;SDS011;28703;44.412;11.918;2023-05-10T03:42:19;8.50;;;4.68;;
39314;SDS011;28703;44.412;11.918;2023-05-10T03:44:45;9.70;;;5.30;;
39314;SDS011;28703;44.412;11.918;2023-05-10T03:47:17;11.15;;;5.60;;
39314;SDS011;28703;44.412;11.918;2023-05-10T03:49:43;6.97;;;4.95;;
39314;SDS011;28703;44.412;11.918;2023-05-10T03:52:20;11.70;;;5.95;;
39314;SDS011;28703;44.412;11.918;2023-05-10T03:54:52;7.87;;;5.87;;
39314;SDS011;28703;44.412;11.918;2023-05-10T03:57:25;9.52;;;6.13;;
39314;SDS011;28703;44.412;11.918;2023-05-10T04:02:30;12.88;;;6.07;;
39314;SDS011;28703;44.412;11.918;2023-05-10T04:05:05;8.80;;;6.10;;
39314;SDS011;28703;44.412;11.918;2023-05-10T04:07:53;8.45;;;6.90;;
39314;SDS011;28703;44.412;11.918;2023-05-10T04:10:42;9.48;;;6.38;;
39314;SDS011;28703;44.412;11.918;2023-05-10T04:13:11;11.85;;;6.25;;
39314;SDS011;28703;44.412;11.918;2023-05-10T04:15:50;10.30;;;6.07;;
39314;SDS011;28703;44.412;11.918;2023-05-10T04:18:25;9.90;;;5.93;;
39314;SDS011;28703;44.412;11.918;2023-05-10T04:20:52;11.80;;;6.05;;
39314;SDS011;28703;44.412;11.918;2023-05-10T04:23:23;14.68;;;5.88;;
39314;SDS011;28703;44.412;11.918;2023-05-10T04:26:14;9.80;;;6.53;;
39314;SDS011;28703;44.412;11.918;2023-05-10T04:28:58;14.40;;;7.00;;
39314;SDS011;28703;44.412;11.918;2023-05-10T04:31:38;11.88;;;6.82;;
39314;SDS011;28703;44.412;11.918;2023-05-10T04:34:09;9.50;;;5.57;;
39314;SDS011;28703;44.412;11.918;2023-05-10T04:36:45;10.63;;;6.05;;
39314;SDS011;28703;44.412;11.918;2023-05-10T04:39:19;8.10;;;5.95;;
39314;SDS011;28703;44.412;11.918;2023-05-10T04:41:54;12.20;;;5.65;;
39314;SDS011;28703;44.412;11.918;2023-05-10T04:44:27;13.55;;;5.88;;
39314;SDS011;28703;44.412;11.918;2023-05-10T04:46:58;8.60;;;5.75;;
39314;SDS011;28703;44.412;11.918;2023-05-10T04:49:35;6.88;;;5.80;;
39314;SDS011;28703;44.412;11.918;2023-05-10T04:52:14;7.38;;;5.50;;
39314;SDS011;28703;44.412;11.918;2023-05-10T04:54:57;13.40;;;5.45;;
39314;SDS011;28703;44.412;11.918;2023-05-10T04:57:49;10.45;;;6.25;;
39314;SDS011;28703;44.412;11.918;2023-05-10T05:00:28;10.98;;;5.75;;
39314;SDS011;28703;44.412;11.918;2023-05-10T05:03:03;8.00;;;5.20;;
39314;SDS011;28703;44.412;11.918;2023-05-10T05:05:30;9.27;;;5.47;;
39314;SDS011;28703;44.412;11.918;2023-05-10T05:08:02;8.00;;;5.65;;
39314;SDS011;28703;44.412;11.918;2023-05-10T05:10:33;7.50;;;5.35;;
39314;SDS011;28703;44.412;11.918;2023-05-10T05:13:04;9.13;;;5.57;;
39314;SDS011;28703;44.412;11.918;2023-05-10T05:15:34;5.75;;;5.05;;
39314;SDS011;28703;44.412;11.918;2023-05-10T05:18:03;8.23;;;5.97;;
39314;SDS011;28703;44.412;11.918;2023-05-10T05:20:31;6.85;;;5.38;;
39314;SDS011;28703;44.412;11.918;2023-05-10T05:23:04;10.45;;;5.55;;
39314;SDS011;28703;44.412;11.918;2023-05-10T05:25:41;7.22;;;5.93;;
39314;SDS011;28703;44.412;11.918;2023-05-10T05:28:07;10.20;;;5.45;;
39314;SDS011;28703;44.412;11.918;2023-05-10T05:30:39;9.18;;;5.68;;
39314;SDS011;28703;44.412;11.918;2023-05-10T05:33:09;6.15;;;5.40;;
39314;SDS011;28703;44.412;11.918;2023-05-10T05:35:38;6.95;;;5.53;;
39314;SDS011;28703;44.412;11.918;2023-05-10T05:38:04;9.45;;;5.53;;
39314;SDS011;28703;44.412;11.918;2023-05-10T05:40:30;7.72;;;5.90;;
39314;SDS011;28703;44.412;11.918;2023-05-10T05:43:04;10.50;;;6.53;;
39314;SDS011;28703;44.412;11.918;2023-05-10T05:45:40;6.45;;;5.70;;
39314;SDS011;28703;44.412;11.918;2023-05-10T05:48:09;7.93;;;5.90;;
39314;SDS011;28703;44.412;11.918;2023-05-10T05:50:41;8.63;;;5.88;;
39314;SDS011;28703;44.412;11.918;2023-05-10T05:53:13;11.23;;;6.55;;
39314;SDS011;28703;44.412;11.918;2023-05-10T05:55:58;10.32;;;5.82;;
39314;SDS011;28703;44.412;11.918;2023-05-10T05:58:27;8.27;;;6.28;;
39314;SDS011;28703;44.412;11.918;2023-05-10T06:01:03;9.40;;;6.30;;
39314;SDS011;28703;44.412;11.918;2023-05-10T06:03:35;6.63;;;5.72;;
39314;SDS011;28703;44.412;11.918;2023-05-10T06:06:03;9.90;;;5.68;;
39314;SDS011;28703;44.412;11.918;2023-05-10T06:08:36;10.50;;;5.85;;
39314;SDS011;28703;44.412;11.918;2023-05-10T06:11:02;10.15;;;5.80;;
39314;SDS011;28703;44.412;11.918;2023-05-10T06:13:29;7.88;;;6.03;;
39314;SDS011;28703;44.412;11.918;2023-05-10T06:15:57;6.40;;;5.80;;
39314;SDS011;28703;44.412;11.918;2023-05-10T06:18:27;13.80;;;6.10;;
39314;SDS011;28703;44.412;11.918;2023-05-10T06:20:57;9.07;;;5.68;;
39314;SDS011;28703;44.412;11.918;2023-05-10T06:23:25;10.10;;;5.57;;
39314;SDS011;28703;44.412;11.918;2023-05-10T06:26:03;12.45;;;5.63;;
39314;SDS011;28703;44.412;11.918;2023-05-10T06:28:39;8.48;;;5.53;;
39314;SDS011;28703;44.412;11.918;2023-05-10T06:31:16;9.27;;;5.38;;
39314;SDS011;28703;44.412;11.918;2023-05-10T06:33:42;6.32;;;5.72;;
39314;SDS011;28703;44.412;11.918;2023-05-10T06:36:08;8.65;;;6.13;;
39314;SDS011;28703;44.412;11.918;2023-05-10T06:38:37;9.63;;;5.70;;
39314;SDS011;28703;44.412;11.918;2023-05-10T06:41:03;10.77;;;5.80;;
39314;SDS011;28703;44.412;11.918;2023-05-10T06:43:33;9.35;;;5.97;;
39314;SDS011;28703;44.412;11.918;2023-05-10T06:46:03;10.95;;;6.10;;
39314;SDS011;28703;44.412;11.918;2023-05-10T06:48:37;10.25;;;7.30;;
39314;SDS011;28703;44.412;11.918;2023-05-10T06:51:04;8.23;;;5.57;;
39314;SDS011;28703;44.412;11.918;2023-05-10T06:53:49;6.10;;;5.50;;
39314;SDS011;28703;44.412;11.918;2023-05-10T06:56:20;6.43;;;5.38;;
39314;SDS011;28703;44.412;11.918;2023-05-10T06:58:52;9.27;;;5.80;;
39314;SDS011;28703;44.412;11.918;2023-05-10T07:01:28;8.40;;;5.90;;
39314;SDS011;28703;44.412;11.918;2023-05-10T07:04:00;8.70;;;5.93;;
39314;SDS011;28703;44.412;11.918;2023-05-10T07:07:02;17.27;;;6.05;;
39314;SDS011;28703;44.412;11.918;2023-05-10T07:09:34;13.20;;;6.50;;
39314;SDS011;28703;44.412;11.918;2023-05-10T07:12:15;17.00;;;5.90;;
39314;SDS011;28703;44.412;11.918;2023-05-10T07:14:43;7.07;;;4.95;;
39314;SDS011;28703;44.412;11.918;2023-05-10T07:17:23;8.93;;;5.68;;
39314;SDS011;28703;44.412;11.918;2023-05-10T07:19:50;10.43;;;6.20;;
39314;SDS011;28703;44.412;11.918;2023-05-10T07:22:16;15.52;;;5.75;;
39314;SDS011;28703;44.412;11.918;2023-05-10T07:24:49;11.00;;;6.13;;
39314;SDS011;28703;44.412;11.918;2023-05-10T07:27:15;12.27;;;5.88;;
39314;SDS011;28703;44.412;11.918;2023-05-10T07:29:45;8.32;;;5.78;;
39314;SDS011;28703;44.412;11.918;2023-05-10T07:32:14;7.35;;;4.97;;
39314;SDS011;28703;44.412;11.918;2023-05-10T07:34:45;9.57;;;7.18;;
39314;SDS011;28703;44.412;11.918;2023-05-10T07:37:12;9.52;;;6.75;;
39314;SDS011;28703;44.412;11.918;2023-05-10T07:39:50;12.98;;;6.22;;
39314;SDS011;28703;44.412;11.918;2023-05-10T07:42:19;7.90;;;5.65;;
39314;SDS011;28703;44.412;11.918;2023-05-10T07:44:58;7.70;;;5.95;;
39314;SDS011;28703;44.412;11.918;2023-05-10T07:47:31;12.18;;;6.13;;
39314;SDS011;28703;44.412;11.918;2023-05-10T07:50:21;9.15;;;6.07;;
39314;SDS011;28703;44.412;11.918;2023-05-10T07:52:55;8.10;;;6.03;;
39314;SDS011;28703;44.412;11.918;2023-05-10T07:55:24;9.77;;;6.30;;
39314;SDS011;28703;44.412;11.918;2023-05-10T07:58:06;9.02;;;6.95;;
39314;SDS011;28703;44.412;11.918;2023-05-10T08:00:48;13.55;;;6.53;;
39314;SDS011;28703;44.412;11.918;2023-05-10T08:03:22;8.45;;;6.28;;
39314;SDS011;28703;44.412;11.918;2023-05-10T08:06:13;11.85;;;7.55;;
39314;SDS011;28703;44.412;11.918;2023-05-10T08:08:50;9.43;;;6.28;;
39314;SDS011;28703;44.412;11.918;2023-05-10T08:11:25;9.53;;;6.87;;
39314;SDS011;28703;44.412;11.918;2023-05-10T08:13:53;11.50;;;6.40;;
39314;SDS011;28703;44.412;11.918;2023-05-10T08:16:22;8.13;;;6.32;;
39314;SDS011;28703;44.412;11.918;2023-05-10T08:21:32;12.00;;;6.40;;
39314;SDS011;28703;44.412;11.918;2023-05-10T08:24:06;9.93;;;6.47;;
39314;SDS011;28703;44.412;11.918;2023-05-10T08:26:33;6.72;;;5.93;;
39314;SDS011;28703;44.412;11.918;2023-05-10T08:29:03;13.63;;;6.95;;
39314;SDS011;28703;44.412;11.918;2023-05-10T08:31:29;11.35;;;7.00;;
39314;SDS011;28703;44.412;11.918;2023-05-10T08:34:00;12.80;;;7.38;;
39314;SDS011;28703;44.412;11.918;2023-05-10T08:36:29;11.57;;;6.57;;
39314;SDS011;28703;44.412;11.918;2023-05-10T08:39:07;8.93;;;6.55;;
39314;SDS011;28703;44.412;11.918;2023-05-10T08:41:53;12.20;;;6.22;;
39314;SDS011;28703;44.412;11.918;2023-05-10T08:44:40;12.45;;;5.95;;
39314;SDS011;28703;44.412;11.918;2023-05-10T08:47:11;7.50;;;6.18;;
39314;SDS011;28703;44.412;11.918;2023-05-10T08:49:54;9.07;;;6.45;;
39314;SDS011;28703;44.412;11.918;2023-05-10T08:52:39;10.15;;;6.13;;
39314;SDS011;28703;44.412;11.918;2023-05-10T08:55:17;10.43;;;7.35;;
39314;SDS011;28703;44.412;11.918;2023-05-10T08:57:43;8.68;;;6.32;;
39314;SDS011;28703;44.412;11.918;2023-05-10T09:00:11;8.98;;;6.13;;
39314;SDS011;28703;44.412;11.918;2023-05-10T09:02:38;6.63;;;5.97;;
39314;SDS011;28703;44.412;11.918;2023-05-10T09:05:08;7.13;;;6.00;;
39314;SDS011;28703;44.412;11.918;2023-05-10T09:07:39;9.25;;;5.88;;
39314;SDS011;28703;44.412;11.918;2023-05-10T09:10:05;12.23;;;6.30;;
39314;SDS011;28703;44.412;11.918;2023-05-10T09:12:33;11.05;;;6.20;;
39314;SDS011;28703;44.412;11.918;2023-05-10T09:14:59;11.73;;;6.75;;
39314;SDS011;28703;44.412;11.918;2023-05-10T09:17:29;9.48;;;6.40;;
39314;SDS011;28703;44.412;11.918;2023-05-10T09:19:59;9.30;;;6.07;;
39314;SDS011;28703;44.412;11.918;2023-05-10T09:22:26;8.15;;;6.13;;
39314;SDS011;28703;44.412;11.918;2023-05-10T09:27:35;8.98;;;6.70;;
39314;SDS011;28703;44.412;11.918;2023-05-10T09:30:02;8.32;;;6.40;;
39314;SDS011;28703;44.412;11.918;2023-05-10T09:32:40;9.50;;;6.30;;
39314;SDS011;28703;44.412;11.918;2023-05-10T09:35:11;8.60;;;6.45;;
39314;SDS011;28703;44.412;11.918;2023-05-10T09:37:44;10.07;;;6.60;;
39314;SDS011;28703;44.412;11.918;2023-05-10T09:40:17;7.72;;;5.75;;
39314;SDS011;28703;44.412;11.918;2023-05-10T09:42:56;7.65;;;5.78;;
39314;SDS011;28703;44.412;11.918;2023-05-10T09:45:30;6.70;;;5.70;;
39314;SDS011;28703;44.412;11.918;2023-05-10T09:47:57;7.95;;;5.63;;
39314;SDS011;28703;44.412;11.918;2023-05-10T09:50:24;9.32;;;5.32;;
39314;SDS011;28703;44.412;11.918;2023-05-10T09:52:55;10.93;;;5.85;;
39314;SDS011;28703;44.412;11.918;2023-05-10T09:55:32;9.82;;;5.55;;
39314;SDS011;28703;44.412;11.918;2023-05-10T09:58:20;7.35;;;5.55;;
39314;SDS011;28703;44.412;11.918;2023-05-10T10:00:46;7.40;;;5.43;;
39314;SDS011;28703;44.412;11.918;2023-05-10T10:03:20;8.50;;;5.93;;
39314;SDS011;28703;44.412;11.918;2023-05-10T10:05:48;12.90;;;5.82;;
39314;SDS011;28703;44.412;11.918;2023-05-10T10:08:14;8.32;;;5.53;;
39314;SDS011;28703;44.412;11.918;2023-05-10T10:10:41;14.52;;;6.15;;
39314;SDS011;28703;44.412;11.918;2023-05-10T10:13:11;12.05;;;6.25;;
39314;SDS011;28703;44.412;11.918;2023-05-10T10:15:37;9.77;;;6.45;;
39314;SDS011;28703;44.412;11.918;2023-05-10T10:18:13;8.48;;;6.05;;
39314;SDS011;28703;44.412;11.918;2023-05-10T10:20:46;12.45;;;6.95;;
39314;SDS011;28703;44.412;11.918;2023-05-10T10:23:26;7.68;;;6.32;;
39314;SDS011;28703;44.412;11.918;2023-05-10T10:35:58;6.45;;;5.75;;
39314;SDS011;28703;44.412;11.918;2023-05-10T10:42:02;9.23;;;6.35;;
39314;SDS011;28703;44.412;11.918;2023-05-10T10:52:21;7.72;;;6.22;;
39314;SDS011;28703;44.412;11.918;2023-05-10T10:54:52;7.63;;;6.55;;
39314;SDS011;28703;44.412;11.918;2023-05-10T10:57:46;9.60;;;6.63;;
39314;SDS011;28703;44.412;11.918;2023-05-10T11:00:29;10.23;;;7.07;;
39314;SDS011;28703;44.412;11.918;2023-05-10T11:03:11;8.80;;;7.50;;
39314;SDS011;28703;44.412;11.918;2023-05-10T11:08:27;12.05;;;9.57;;
39314;SDS011;28703;44.412;11.918;2023-05-10T11:13:54;20.35;;;12.10;;
39314;SDS011;28703;44.412;11.918;2023-05-10T11:16:45;16.40;;;13.07;;
39314;SDS011;28703;44.412;11.918;2023-05-10T11:19:23;14.70;;;13.20;;
39314;SDS011;28703;44.412;11.918;2023-05-10T11:24:33;14.93;;;13.35;;
39314;SDS011;28703;44.412;11.918;2023-05-10T11:27:37;16.02;;;14.00;;
39314;SDS011;28703;44.412;11.918;2023-05-10T11:30:28;19.45;;;14.07;;
39314;SDS011;28703;44.412;11.918;2023-05-10T11:33:21;17.67;;;15.52;;
39314;SDS011;28703;44.412;11.918;2023-05-10T11:39:10;14.77;;;13.13;;
39314;SDS011;28703;44.412;11.918;2023-05-10T11:41:58;14.85;;;13.15;;
39314;SDS011;28703;44.412;11.918;2023-05-10T11:44:31;18.40;;;13.73;;
39314;SDS011;28703;44.412;11.918;2023-05-10T11:47:25;15.88;;;13.15;;
39314;SDS011;28703;44.412;11.918;2023-05-10T11:50:12;14.65;;;13.07;;
39314;SDS011;28703;44.412;11.918;2023-05-10T11:52:40;18.55;;;13.23;;
39314;SDS011;28703;44.412;11.918;2023-05-10T11:55:07;14.50;;;11.93;;
39314;SDS011;28703;44.412;11.918;2023-05-10T11:57:45;13.68;;;10.48;;
39314;SDS011;28703;44.412;11.918;2023-05-10T12:00:31;12.38;;;10.07;;
39314;SDS011;28703;44.412;11.918;2023-05-10T12:02:57;12.68;;;10.55;;
39314;SDS011;28703;44.412;11.918;2023-05-10T12:05:25;12.55;;;11.00;;
39314;SDS011;28703;44.412;11.918;2023-05-10T12:07:52;11.10;;;9.90;;
39314;SDS011;28703;44.412;11.918;2023-05-10T12:10:24;13.07;;;10.55;;
39314;SDS011;28703;44.412;11.918;2023-05-10T12:12:57;18.13;;;11.82;;
39314;SDS011;28703;44.412;11.918;2023-05-10T12:15:27;4.38;;;3.55;;
39314;SDS011;28703;44.412;11.918;2023-05-10T12:17:56;4.05;;;2.13;;
39314;SDS011;28703;44.412;11.918;2023-05-10T12:20:27;2.47;;;2.00;;
39314;SDS011;28703;44.412;11.918;2023-05-10T12:22:58;1.75;;;1.65;;
39314;SDS011;28703;44.412;11.918;2023-05-10T12:28:11;6.15;;;1.50;;
39314;SDS011;28703;44.412;11.918;2023-05-10T12:30:38;5.93;;;1.70;;
39314;SDS011;28703;44.412;11.918;2023-05-10T12:36:23;4.75;;;1.42;;
39314;SDS011;28703;44.412;11.918;2023-05-10T12:39:00;6.70;;;2.30;;
39314;SDS011;28703;44.412;11.918;2023-05-10T12:41:53;10.38;;;1.42;;
39314;SDS011;28703;44.412;11.918;2023-05-10T12:47:55;3.20;;;1.15;;
39314;SDS011;28703;44.412;11.918;2023-05-10T12:50:29;1.50;;;1.02;;
39314;SDS011;28703;44.412;11.918;2023-05-10T12:53:18;5.90;;;1.33;;
39314;SDS011;28703;44.412;11.918;2023-05-10T12:55:53;3.08;;;0.93;;
39314;SDS011;28703;44.412;11.918;2023-05-10T12:58:19;2.22;;;1.63;;
39314;SDS011;28703;44.412;11.918;2023-05-10T13:00:45;1.98;;;1.83;;
39314;SDS011;28703;44.412;11.918;2023-05-10T13:03:12;2.70;;;1.38;;
39314;SDS011;28703;44.412;11.918;2023-05-10T13:05:49;1.40;;;1.30;;
39314;SDS011;28703;44.412;11.918;2023-05-10T13:08:20;8.32;;;1.50;;
39314;SDS011;28703;44.412;11.918;2023-05-10T13:10:49;3.83;;;1.20;;
39314;SDS011;28703;44.412;11.918;2023-05-10T13:13:25;2.85;;;1.40;;
39314;SDS011;28703;44.412;11.918;2023-05-10T13:15:54;1.95;;;1.10;;
39314;SDS011;28703;44.412;11.918;2023-05-10T13:18:22;1.55;;;1.40;;
39314;SDS011;28703;44.412;11.918;2023-05-10T13:20:49;2.20;;;1.45;;
39314;SDS011;28703;44.412;11.918;2023-05-10T13:23:23;1.60;;;1.50;;
39314;SDS011;28703;44.412;11.918;2023-05-10T13:25:50;2.00;;;1.80;;
39314;SDS011;28703;44.412;11.918;2023-05-10T13:28:21;7.47;;;1.70;;
39314;SDS011;28703;44.412;11.918;2023-05-10T13:30:51;1.90;;;1.80;;
39314;SDS011;28703;44.412;11.918;2023-05-10T13:33:20;2.10;;;2.00;;
39314;SDS011;28703;44.412;11.918;2023-05-10T13:35:46;2.15;;;1.95;;
39314;SDS011;28703;44.412;11.918;2023-05-10T13:38:12;2.63;;;1.80;;
39314;SDS011;28703;44.412;11.918;2023-05-10T13:40:41;2.00;;;1.90;;
39314;SDS011;28703;44.412;11.918;2023-05-10T13:43:10;2.75;;;1.90;;
39314;SDS011;28703;44.412;11.918;2023-05-10T13:45:36;2.30;;;2.10;;
39314;SDS011;28703;44.412;11.918;2023-05-10T13:48:08;5.03;;;1.95;;
39314;SDS011;28703;44.412;11.918;2023-05-10T13:50:41;4.10;;;1.95;;
39314;SDS011;28703;44.412;11.918;2023-05-10T13:53:10;2.20;;;2.10;;
39314;SDS011;28703;44.412;11.918;2023-05-10T13:55:39;2.40;;;1.63;;
39314;SDS011;28703;44.412;11.918;2023-05-10T13:58:13;1.90;;;1.80;;
39314;SDS011;28703;44.412;11.918;2023-05-10T14:00:43;1.48;;;1.38;;
39314;SDS011;28703;44.412;11.918;2023-05-10T14:03:09;1.65;;;1.55;;
39314;SDS011;28703;44.412;11.918;2023-05-10T14:05:40;2.47;;;1.45;;
39314;SDS011;28703;44.412;11.918;2023-05-10T14:08:10;4.82;;;1.42;;
39314;SDS011;28703;44.412;11.918;2023-05-10T14:10:38;1.77;;;1.17;;
39314;SDS011;28703;44.412;11.918;2023-05-10T14:13:07;1.25;;;1.20;;
39314;SDS011;28703;44.412;11.918;2023-05-10T14:15:33;1.65;;;1.10;;
39314;SDS011;28703;44.412;11.918;2023-05-10T14:18:04;5.20;;;1.40;;
39314;SDS011;28703;44.412;11.918;2023-05-10T14:20:31;2.67;;;1.10;;
39314;SDS011;28703;44.412;11.918;2023-05-10T14:22:59;1.30;;;1.20;;
39314;SDS011;28703;44.412;11.918;2023-05-10T14:25:28;1.23;;;1.00;;
39314;SDS011;28703;44.412;11.918;2023-05-10T14:27:56;1.67;;;1.13;;
39314;SDS011;28703;44.412;11.918;2023-05-10T14:30:25;1.17;;;0.82;;
39314;SDS011;28703;44.412;11.918;2023-05-10T14:32:56;0.90;;;0.90;;
39314;SDS011;28703;44.412;11.918;2023-05-10T14:35:27;1.63;;;1.50;;
39314;SDS011;28703;44.412;11.918;2023-05-10T14:37:59;3.47;;;1.17;;
39314;SDS011;28703;44.412;11.918;2023-05-10T14:40:32;1.25;;;1.13;;
39314;SDS011;28703;44.412;11.918;2023-05-10T14:43:08;1.45;;;1.08;;
39314;SDS011;28703;44.412;11.918;2023-05-10T14:45:38;3.10;;;1.13;;
39314;SDS011;28703;44.412;11.918;2023-05-10T14:48:04;1.20;;;1.10;;
39314;SDS011;28703;44.412;11.918;2023-05-10T14:50:52;1.17;;;1.10;;
39314;SDS011;28703;44.412;11.918;2023-05-10T14:53:19;1.50;;;1.40;;
39314;SDS011;28703;44.412;11.918;2023-05-10T14:55:48;3.22;;;1.20;;
39314;SDS011;28703;44.412;11.918;2023-05-10T14:58:43;1.33;;;1.30;;
39314;SDS011;28703;44.412;11.918;2023-05-10T15:01:37;1.50;;;1.40;;
39314;SDS011;28703;44.412;11.918;2023-05-10T15:04:19;1.27;;;1.10;;
39314;SDS011;28703;44.412;11.918;2023-05-10T15:07:07;1.23;;;1.23;;
39314;SDS011;28703;44.412;11.918;2023-05-10T15:09:42;1.33;;;1.23;;
39314;SDS011;28703;44.412;11.918;2023-05-10T15:12:12;2.00;;;1.30;;
39314;SDS011;28703;44.412;11.918;2023-05-10T15:14:59;1.50;;;1.40;;
39314;SDS011;28703;44.412;11.918;2023-05-10T15:17:29;6.63;;;2.53;;
39314;SDS011;28703;44.412;11.918;2023-05-10T15:19:59;2.28;;;1.63;;
39314;SDS011;28703;44.412;11.918;2023-05-10T15:22:45;1.20;;;1.20;;
39314;SDS011;28703;44.412;11.918;2023-05-10T15:25:16;1.48;;;1.40;;
39314;SDS011;28703;44.412;11.918;2023-05-10T15:27:49;1.60;;;1.50;;
39314;SDS011;28703;44.412;11.918;2023-05-10T15:30:29;1.38;;;1.38;;
39314;SDS011;28703;44.412;11.918;2023-05-10T15:32:56;2.13;;;2.03;;
39314;SDS011;28703;44.412;11.918;2023-05-10T15:35:31;2.00;;;1.90;;
39314;SDS011;28703;44.412;11.918;2023-05-10T15:38:05;3.63;;;3.10;;
39314;SDS011;28703;44.412;11.918;2023-05-10T15:40:31;2.35;;;2.17;;
39314;SDS011;28703;44.412;11.918;2023-05-10T15:43:02;4.30;;;2.72;;
39314;SDS011;28703;44.412;11.918;2023-05-10T15:45:39;3.05;;;2.83;;
39314;SDS011;28703;44.412;11.918;2023-05-10T15:48:11;2.92;;;2.63;;
39314;SDS011;28703;44.412;11.918;2023-05-10T15:50:43;2.88;;;2.75;;
39314;SDS011;28703;44.412;11.918;2023-05-10T15:53:11;3.10;;;2.90;;
39314;SDS011;28703;44.412;11.918;2023-05-10T15:55:44;3.08;;;2.88;;
39314;SDS011;28703;44.412;11.918;2023-05-10T15:58:19;3.08;;;2.92;;
39314;SDS011;28703;44.412;11.918;2023-05-10T16:00:57;3.00;;;2.80;;
39314;SDS011;28703;44.412;11.918;2023-05-10T16:06:48;3.35;;;3.15;;
39314;SDS011;28703;44.412;11.918;2023-05-10T16:09:22;3.47;;;3.28;;
39314;SDS011;28703;44.412;11.918;2023-05-10T16:11:56;3.70;;;3.50;;
39314;SDS011;28703;44.412;11.918;2023-05-10T16:14:25;3.42;;;3.22;;
39314;SDS011;28703;44.412;11.918;2023-05-10T16:16:58;2.88;;;2.67;;
39314;SDS011;28703;44.412;11.918;2023-05-10T16:19:29;2.53;;;2.42;;
39314;SDS011;28703;44.412;11.918;2023-05-10T16:22:00;2.95;;;2.70;;
39314;SDS011;28703;44.412;11.918;2023-05-10T16:24:36;3.45;;;3.15;;
39314;SDS011;28703;44.412;11.918;2023-05-10T16:27:08;3.83;;;2.60;;
39314;SDS011;28703;44.412;11.918;2023-05-10T16:29:37;3.20;;;3.00;;
39314;SDS011;28703;44.412;11.918;2023-05-10T16:32:03;3.15;;;2.95;;
39314;SDS011;28703;44.412;11.918;2023-05-10T16:34:36;2.80;;;2.70;;